createdAt,value
2018-11-11T00:00:25.639Z,0
2018-11-11T00:01:26.366Z,0
2018-11-11T00:02:27.090Z,0
2018-11-11T00:03:27.807Z,0
2018-11-11T00:04:29.236Z,0
2018-11-11T00:05:30.221Z,0
2018-11-11T00:06:31.004Z,0
2018-11-11T00:07:31.742Z,0
2018-11-11T00:08:32.720Z,0
2018-11-11T00:09:34.283Z,0
2018-11-11T00:10:35.285Z,0
2018-11-11T00:11:36.190Z,0
2018-11-11T00:12:36.903Z,0
2018-11-11T00:13:37.646Z,0
2018-11-11T00:14:38.470Z,0
2018-11-11T00:15:39.195Z,0
2018-11-11T00:16:39.910Z,0
2018-11-11T00:17:40.675Z,0
2018-11-11T00:18:41.398Z,0
2018-11-11T00:19:42.175Z,0
2018-11-11T00:20:42.910Z,0
2018-11-11T00:21:43.664Z,0
2018-11-11T00:22:44.373Z,0
2018-11-11T00:23:45.092Z,0
2018-11-11T00:24:45.810Z,0
2018-11-11T00:25:46.544Z,0
2018-11-11T00:26:47.257Z,0
2018-11-11T00:27:47.981Z,0
2018-11-11T00:28:48.967Z,0
2018-11-11T00:29:49.748Z,0
2018-11-11T00:30:51.014Z,0
2018-11-11T00:31:51.818Z,0
2018-11-11T00:32:52.957Z,0
2018-11-11T00:33:53.995Z,0
2018-11-11T00:34:54.738Z,0
2018-11-11T00:35:56.941Z,0
2018-11-11T00:36:58.962Z,0
2018-11-11T00:38:01.064Z,0
2018-11-11T00:39:02.613Z,0
2018-11-11T00:40:04.862Z,0
2018-11-11T00:41:07.426Z,0
2018-11-11T00:42:09.588Z,0
2018-11-11T00:43:11.692Z,0
2018-11-11T00:44:13.821Z,0
2018-11-11T00:45:16.008Z,0
2018-11-11T00:46:18.042Z,0
2018-11-11T00:47:20.047Z,0
2018-11-11T00:48:21.611Z,0
2018-11-11T00:49:23.915Z,0
2018-11-11T00:50:25.806Z,0
2018-11-11T00:51:28.400Z,0
2018-11-11T00:52:30.358Z,0
2018-11-11T00:53:32.325Z,0
2018-11-11T00:54:34.553Z,0
2018-11-11T00:55:36.657Z,0
2018-11-11T00:56:38.878Z,0
2018-11-11T00:57:40.865Z,0
2018-11-11T00:58:43.154Z,0
2018-11-11T00:59:44.293Z,0
2018-11-11T01:00:45.986Z,0
2018-11-11T01:01:48.315Z,0
2018-11-11T01:02:50.140Z,0
2018-11-11T01:03:51.372Z,0
2018-11-11T01:04:53.565Z,0
2018-11-11T01:05:55.780Z,0
2018-11-11T01:06:58.426Z,0
2018-11-11T01:08:00.186Z,0
2018-11-11T01:09:01.334Z,0
2018-11-11T01:10:03.016Z,0
2018-11-11T01:11:04.879Z,0
2018-11-11T01:12:06.899Z,0
2018-11-11T01:13:08.734Z,0
2018-11-11T01:14:10.957Z,0
2018-11-11T01:15:12.532Z,0
2018-11-11T01:16:14.652Z,0
2018-11-11T01:17:16.828Z,0
2018-11-11T01:18:17.735Z,0
2018-11-11T01:19:18.528Z,0
2018-11-11T01:20:19.268Z,0
2018-11-11T01:21:20.057Z,0
2018-11-11T01:22:20.793Z,0
2018-11-11T01:23:21.525Z,0
2018-11-11T01:25:37.777Z,0
2018-11-11T01:26:39.425Z,0
2018-11-11T01:27:41.027Z,0
2018-11-11T01:28:42.136Z,0
2018-11-11T01:29:42.871Z,0
2018-11-11T01:30:44.330Z,0
2018-11-11T01:31:45.623Z,0
2018-11-11T01:32:46.358Z,0
2018-11-11T01:33:48.021Z,0
2018-11-11T01:34:48.730Z,0
2018-11-11T01:35:49.892Z,0
2018-11-11T01:36:50.612Z,0
2018-11-11T01:37:51.993Z,0
2018-11-11T01:38:52.849Z,0
2018-11-11T01:39:53.579Z,0
2018-11-11T01:40:54.831Z,0
2018-11-11T01:41:56.097Z,0
2018-11-11T01:42:56.882Z,0
2018-11-11T01:43:57.999Z,0
2018-11-11T01:44:58.905Z,0
2018-11-11T01:46:00.120Z,0
2018-11-11T01:47:00.977Z,0
2018-11-11T01:48:01.861Z,0
2018-11-11T01:49:02.920Z,0
2018-11-11T01:50:03.748Z,0
2018-11-11T01:51:04.607Z,0
2018-11-11T01:52:05.345Z,0
2018-11-11T01:53:06.297Z,0
2018-11-11T01:54:07.045Z,0
2018-11-11T01:55:08.063Z,0
2018-11-11T01:56:08.780Z,0
2018-11-11T01:57:09.836Z,0
2018-11-11T01:58:10.570Z,0
2018-11-11T01:59:11.662Z,0
2018-11-11T02:00:12.385Z,0
2018-11-11T02:01:13.122Z,0
2018-11-11T02:02:13.834Z,0
2018-11-11T02:03:14.824Z,0
2018-11-11T02:04:15.967Z,0
2018-11-11T02:05:16.837Z,0
2018-11-11T02:06:17.992Z,0
2018-11-11T02:07:18.757Z,0
2018-11-11T02:08:19.686Z,0
2018-11-11T02:09:20.412Z,0
2018-11-11T02:10:21.149Z,0
2018-11-11T02:11:22.163Z,0
2018-11-11T02:12:22.896Z,0
2018-11-11T02:13:24.241Z,0
2018-11-11T02:14:24.964Z,0
2018-11-11T02:15:26.079Z,0
2018-11-11T02:16:26.802Z,0
2018-11-11T02:17:27.530Z,0
2018-11-11T02:18:28.494Z,0
2018-11-11T02:19:29.864Z,0
2018-11-11T02:20:30.587Z,0
2018-11-11T02:21:31.405Z,0
2018-11-11T02:22:32.126Z,0
2018-11-11T02:23:32.860Z,0
2018-11-11T02:24:33.672Z,0
2018-11-11T02:25:34.389Z,0
2018-11-11T02:26:35.461Z,0
2018-11-11T02:27:36.176Z,0
2018-11-11T02:28:37.225Z,0
2018-11-11T02:29:38.250Z,0
2018-11-11T02:30:39.800Z,0
2018-11-11T02:31:40.540Z,0
2018-11-11T02:32:41.570Z,0
2018-11-11T02:33:42.294Z,0
2018-11-11T02:34:43.027Z,0
2018-11-11T02:35:43.752Z,0
2018-11-11T02:36:44.471Z,0
2018-11-11T02:37:45.262Z,0
2018-11-11T02:38:45.968Z,0
2018-11-11T02:39:46.682Z,0
2018-11-11T02:40:47.662Z,0
2018-11-11T02:41:48.380Z,0
2018-11-11T02:42:49.090Z,0
2018-11-11T02:43:49.821Z,0
2018-11-11T02:44:50.815Z,0
2018-11-11T02:45:51.539Z,0
2018-11-11T02:46:52.288Z,0
2018-11-11T02:47:53.010Z,0
2018-11-11T02:48:53.742Z,0
2018-11-11T02:49:54.462Z,0
2018-11-11T02:50:55.172Z,0
2018-11-11T02:51:56.138Z,0
2018-11-11T02:52:56.861Z,0
2018-11-11T02:53:57.574Z,0
2018-11-11T02:54:58.594Z,0
2018-11-11T02:55:59.327Z,0
2018-11-11T02:57:00.048Z,0
2018-11-11T02:58:00.765Z,0
2018-11-11T02:59:01.490Z,0
2018-11-11T03:00:02.258Z,0
2018-11-11T03:01:02.967Z,0
2018-11-11T03:02:03.689Z,0
2018-11-11T03:03:04.409Z,0
2018-11-11T03:04:05.175Z,0
2018-11-11T03:05:05.900Z,0
2018-11-11T03:06:06.878Z,0
2018-11-11T03:07:07.589Z,0
2018-11-11T03:08:08.308Z,0
2018-11-11T03:09:09.027Z,0
2018-11-11T03:10:09.763Z,0
2018-11-11T03:11:10.491Z,0
2018-11-11T03:12:11.199Z,0
2018-11-11T03:13:11.924Z,0
2018-11-11T03:14:12.645Z,0
2018-11-11T03:15:13.357Z,0
2018-11-11T03:16:14.082Z,0
2018-11-11T03:17:14.811Z,0
2018-11-11T03:18:15.542Z,0
2018-11-11T03:19:16.254Z,0
2018-11-11T03:20:17.071Z,0
2018-11-11T03:21:18.056Z,0
2018-11-11T03:22:18.799Z,0
2018-11-11T03:23:20.001Z,0
2018-11-11T03:24:20.742Z,0
2018-11-11T03:25:21.525Z,0
2018-11-11T03:26:22.395Z,0
2018-11-11T03:27:23.285Z,0
2018-11-11T03:28:24.195Z,0
2018-11-11T03:29:24.918Z,0
2018-11-11T03:30:25.727Z,0
2018-11-11T03:31:26.762Z,0
2018-11-11T03:32:27.570Z,0
2018-11-11T03:33:28.312Z,0
2018-11-11T03:34:29.134Z,0
2018-11-11T03:35:29.843Z,0
2018-11-11T03:36:30.571Z,0
2018-11-11T03:37:31.285Z,0
2018-11-11T03:38:32.007Z,0
2018-11-11T03:39:32.736Z,0
2018-11-11T03:40:33.516Z,0
2018-11-11T03:41:34.225Z,0
2018-11-11T03:42:34.949Z,0
2018-11-11T03:43:35.670Z,0
2018-11-11T03:44:36.397Z,0
2018-11-11T03:45:37.173Z,0
2018-11-11T03:46:37.903Z,0
2018-11-11T03:47:38.630Z,0
2018-11-11T03:48:39.358Z,0
2018-11-11T03:49:40.073Z,0
2018-11-11T03:50:40.782Z,0
2018-11-11T03:51:41.492Z,0
2018-11-11T03:52:42.214Z,0
2018-11-11T03:53:42.926Z,0
2018-11-11T03:54:43.652Z,0
2018-11-11T03:55:44.375Z,0
2018-11-11T03:56:45.115Z,0
2018-11-11T03:57:45.838Z,0
2018-11-11T03:58:46.601Z,0
2018-11-11T03:59:47.272Z,0
2018-11-11T04:00:47.997Z,0
2018-11-11T04:01:48.966Z,0
2018-11-11T04:02:49.684Z,0
2018-11-11T04:03:50.406Z,0
2018-11-11T04:04:51.120Z,0
2018-11-11T04:05:51.857Z,0
2018-11-11T04:06:52.827Z,0
2018-11-11T04:07:53.633Z,0
2018-11-11T04:08:54.356Z,0
2018-11-11T04:09:55.076Z,0
2018-11-11T04:10:55.794Z,0
2018-11-11T04:11:56.527Z,0
2018-11-11T04:12:57.307Z,0
2018-11-11T04:13:58.038Z,0
2018-11-11T04:14:58.748Z,0
2018-11-11T04:15:59.475Z,0
2018-11-11T04:17:00.207Z,0
2018-11-11T04:18:01.017Z,0
2018-11-11T04:19:01.729Z,0
2018-11-11T04:20:02.455Z,0
2018-11-11T04:21:03.230Z,0
2018-11-11T04:22:03.916Z,0
2018-11-11T04:23:04.725Z,0
2018-11-11T04:24:05.454Z,0
2018-11-11T04:25:06.187Z,0
2018-11-11T04:26:06.905Z,0
2018-11-11T04:27:07.613Z,0
2018-11-11T04:28:08.385Z,0
2018-11-11T04:29:09.114Z,0
2018-11-11T04:30:09.830Z,0
2018-11-11T04:31:10.544Z,0
2018-11-11T04:32:11.262Z,0
2018-11-11T04:33:12.238Z,0
2018-11-11T04:34:12.950Z,0
2018-11-11T04:35:13.670Z,0
2018-11-11T04:36:14.650Z,0
2018-11-11T04:37:15.381Z,0
2018-11-11T04:38:16.105Z,0
2018-11-11T04:39:16.903Z,0
2018-11-11T04:40:17.540Z,0
2018-11-11T04:41:18.262Z,0
2018-11-11T04:42:18.976Z,0
2018-11-11T04:43:19.695Z,0
2018-11-11T04:44:20.418Z,0
2018-11-11T04:45:21.237Z,0
2018-11-11T04:46:21.969Z,0
2018-11-11T04:47:22.671Z,0
2018-11-11T04:48:23.389Z,0
2018-11-11T04:49:24.102Z,0
2018-11-11T04:50:24.881Z,0
2018-11-11T04:51:25.607Z,0
2018-11-11T04:52:26.320Z,0
2018-11-11T04:53:27.046Z,0
2018-11-11T04:54:27.762Z,0
2018-11-11T04:55:28.478Z,0
2018-11-11T04:56:29.197Z,0
2018-11-11T04:57:29.910Z,0
2018-11-11T04:58:30.637Z,0
2018-11-11T04:59:31.371Z,0
2018-11-11T05:00:32.081Z,0
2018-11-11T05:01:32.931Z,0
2018-11-11T05:02:33.521Z,0
2018-11-11T05:03:34.234Z,0
2018-11-11T05:04:34.969Z,0
2018-11-11T05:05:35.659Z,0
2018-11-11T05:06:36.379Z,0
2018-11-11T05:07:37.099Z,0
2018-11-11T05:08:37.817Z,0
2018-11-11T05:09:38.537Z,0
2018-11-11T05:10:39.262Z,0
2018-11-11T05:11:39.984Z,0
2018-11-11T05:12:40.720Z,0
2018-11-11T05:13:41.425Z,0
2018-11-11T05:14:42.397Z,0
2018-11-11T05:15:43.131Z,0
2018-11-11T05:16:43.855Z,0
2018-11-11T05:17:44.577Z,0
2018-11-11T05:18:45.467Z,0
2018-11-11T05:19:46.188Z,0
2018-11-11T05:20:46.902Z,0
2018-11-11T05:21:47.690Z,0
2018-11-11T05:22:48.348Z,0
2018-11-11T05:23:49.079Z,0
2018-11-11T05:24:49.787Z,0
2018-11-11T05:25:50.510Z,0
2018-11-11T05:26:51.224Z,0
2018-11-11T05:27:51.947Z,0
2018-11-11T05:28:52.660Z,0
2018-11-11T05:29:53.386Z,0
2018-11-11T05:30:54.216Z,0
2018-11-11T05:31:54.881Z,0
2018-11-11T05:32:55.606Z,0
2018-11-11T05:33:56.327Z,0
2018-11-11T05:34:57.043Z,0
2018-11-11T05:35:57.859Z,0
2018-11-11T05:36:58.579Z,0
2018-11-11T05:37:59.290Z,0
2018-11-11T05:39:00.040Z,0
2018-11-11T05:40:00.764Z,0
2018-11-11T05:41:01.541Z,0
2018-11-11T05:42:02.302Z,0
2018-11-11T05:43:03.028Z,0
2018-11-11T05:44:03.734Z,0
2018-11-11T05:45:04.459Z,0
2018-11-11T05:46:05.280Z,0
2018-11-11T05:47:06.002Z,0
2018-11-11T05:48:06.755Z,0
2018-11-11T05:49:07.479Z,0
2018-11-11T05:50:08.201Z,0
2018-11-11T05:51:08.948Z,0
2018-11-11T05:52:09.659Z,0
2018-11-11T05:53:10.621Z,0
2018-11-11T05:54:11.358Z,0
2018-11-11T05:55:12.072Z,0
2018-11-11T05:56:12.793Z,0
2018-11-11T05:57:13.905Z,0
2018-11-11T05:58:14.627Z,0
2018-11-11T05:59:15.361Z,0
2018-11-11T06:00:16.082Z,0
2018-11-11T06:01:16.802Z,0
2018-11-11T06:02:17.518Z,0
2018-11-11T06:03:18.240Z,0
2018-11-11T06:04:19.062Z,0
2018-11-11T06:05:19.781Z,0
2018-11-11T06:06:20.495Z,0
2018-11-11T06:07:21.227Z,0
2018-11-11T06:08:21.948Z,0
2018-11-11T06:09:22.669Z,0
2018-11-11T06:10:23.507Z,0
2018-11-11T06:11:24.476Z,0
2018-11-11T06:12:25.195Z,0
2018-11-11T06:13:25.923Z,0
2018-11-11T06:14:26.636Z,0
2018-11-11T06:15:27.908Z,0
2018-11-11T06:16:28.649Z,0
2018-11-11T06:17:29.369Z,0
2018-11-11T06:18:30.094Z,0
2018-11-11T06:19:31.078Z,0
2018-11-11T06:20:31.790Z,0
2018-11-11T06:21:32.765Z,0
2018-11-11T06:22:33.486Z,0
2018-11-11T06:23:34.203Z,0
2018-11-11T06:24:34.914Z,0
2018-11-11T06:25:35.642Z,0
2018-11-11T06:26:36.632Z,0
2018-11-11T06:27:37.435Z,0
2018-11-11T06:28:38.082Z,0
2018-11-11T06:29:38.793Z,0
2018-11-11T06:30:39.513Z,0
2018-11-11T06:31:40.239Z,0
2018-11-11T06:32:40.959Z,0
2018-11-11T06:33:41.780Z,0
2018-11-11T06:34:42.513Z,5
2018-11-11T06:35:43.242Z,5
2018-11-11T06:36:44.269Z,5
2018-11-11T06:37:44.987Z,5
2018-11-11T06:38:45.716Z,5
2018-11-11T06:39:46.425Z,5
2018-11-11T06:40:47.138Z,5
2018-11-11T06:41:47.965Z,5
2018-11-11T06:42:48.697Z,11
2018-11-11T06:43:49.417Z,11
2018-11-11T06:44:50.132Z,11
2018-11-11T06:45:50.841Z,11
2018-11-11T06:46:51.568Z,11
2018-11-11T06:47:52.553Z,11
2018-11-11T06:48:53.264Z,11
2018-11-11T06:49:54.234Z,11
2018-11-11T06:50:55.034Z,11
2018-11-11T06:51:55.779Z,11
2018-11-11T06:52:56.522Z,11
2018-11-11T06:53:57.238Z,11
2018-11-11T06:54:57.959Z,11
2018-11-11T06:55:58.693Z,16
2018-11-11T06:56:59.423Z,16
2018-11-11T06:58:00.162Z,16
2018-11-11T06:59:00.879Z,16
2018-11-11T07:00:01.599Z,22
2018-11-11T07:01:02.332Z,22
2018-11-11T07:02:03.059Z,28
2018-11-11T07:03:03.773Z,28
2018-11-11T07:04:04.775Z,28
2018-11-11T07:05:05.511Z,28
2018-11-11T07:06:06.238Z,28
2018-11-11T07:07:06.968Z,28
2018-11-11T07:08:08.079Z,33
2018-11-11T07:09:08.826Z,39
2018-11-11T07:10:09.541Z,50
2018-11-11T07:11:10.271Z,56
2018-11-11T07:12:11.009Z,61
2018-11-11T07:13:11.780Z,61
2018-11-11T07:14:12.604Z,61
2018-11-11T07:15:13.221Z,67
2018-11-11T07:16:13.937Z,73
2018-11-11T07:17:14.665Z,84
2018-11-11T07:18:15.485Z,90
2018-11-11T07:19:16.211Z,95
2018-11-11T07:20:17.210Z,106
2018-11-11T07:21:17.936Z,112
2018-11-11T07:22:18.664Z,118
2018-11-11T07:23:19.403Z,118
2018-11-11T07:24:20.150Z,118
2018-11-11T07:25:20.865Z,123
2018-11-11T07:26:21.913Z,135
2018-11-11T07:27:22.632Z,151
2018-11-11T07:28:23.346Z,157
2018-11-11T07:29:24.072Z,157
2018-11-11T07:30:24.855Z,151
2018-11-11T07:31:25.619Z,146
2018-11-11T07:32:26.349Z,140
2018-11-11T07:33:27.079Z,135
2018-11-11T07:34:27.803Z,129
2018-11-11T07:35:28.538Z,123
2018-11-11T07:36:29.273Z,118
2018-11-11T07:37:30.000Z,118
2018-11-11T07:38:30.754Z,118
2018-11-11T07:39:31.774Z,112
2018-11-11T07:40:32.490Z,118
2018-11-11T07:41:33.209Z,118
2018-11-11T07:42:34.025Z,129
2018-11-11T07:43:34.683Z,135
2018-11-11T07:44:35.453Z,140
2018-11-11T07:45:36.180Z,146
2018-11-11T07:46:36.903Z,140
2018-11-11T07:47:37.673Z,135
2018-11-11T07:48:38.399Z,129
2018-11-11T07:49:39.126Z,123
2018-11-11T07:50:40.136Z,123
2018-11-11T07:51:41.172Z,118
2018-11-11T07:52:42.140Z,118
2018-11-11T07:53:43.175Z,118
2018-11-11T07:54:44.031Z,106
2018-11-11T07:55:44.713Z,106
2018-11-11T07:56:45.435Z,101
2018-11-11T07:57:46.432Z,90
2018-11-11T07:58:47.146Z,84
2018-11-11T07:59:48.142Z,90
2018-11-11T08:00:48.874Z,90
2018-11-11T08:01:49.712Z,95
2018-11-11T08:02:50.364Z,95
2018-11-11T08:03:51.089Z,123
2018-11-11T08:04:51.824Z,146
2018-11-11T08:05:52.599Z,185
2018-11-11T08:06:53.356Z,236
2018-11-11T08:07:54.091Z,258
2018-11-11T08:08:54.822Z,275
2018-11-11T08:09:55.546Z,270
2018-11-11T08:10:56.404Z,258
2018-11-11T08:11:57.109Z,230
2018-11-11T08:12:57.844Z,213
2018-11-11T08:13:58.591Z,202
2018-11-11T08:14:59.318Z,196
2018-11-11T08:16:00.044Z,196
2018-11-11T08:17:00.777Z,213
2018-11-11T08:18:01.502Z,230
2018-11-11T08:19:02.216Z,253
2018-11-11T08:20:02.934Z,281
2018-11-11T08:21:03.652Z,315
2018-11-11T08:22:04.379Z,348
2018-11-11T08:23:05.101Z,371
2018-11-11T08:24:05.841Z,382
2018-11-11T08:25:06.572Z,393
2018-11-11T08:26:07.300Z,405
2018-11-11T08:27:08.301Z,416
2018-11-11T08:28:09.066Z,410
2018-11-11T08:29:09.802Z,399
2018-11-11T08:30:10.542Z,388
2018-11-11T08:31:11.279Z,376
2018-11-11T08:32:12.030Z,365
2018-11-11T08:33:12.729Z,348
2018-11-11T08:34:13.477Z,326
2018-11-11T08:35:14.205Z,309
2018-11-11T08:36:14.949Z,292
2018-11-11T08:37:15.663Z,270
2018-11-11T08:38:16.408Z,264
2018-11-11T08:39:17.142Z,247
2018-11-11T08:40:17.898Z,208
2018-11-11T08:41:18.584Z,180
2018-11-11T08:42:19.672Z,157
2018-11-11T08:43:20.399Z,140
2018-11-11T08:44:21.118Z,135
2018-11-11T08:45:21.847Z,123
2018-11-11T08:46:22.573Z,95
2018-11-11T08:47:23.314Z,78
2018-11-11T08:48:24.124Z,67
2018-11-11T08:49:24.769Z,56
2018-11-11T08:50:25.493Z,61
2018-11-11T08:51:26.218Z,67
2018-11-11T08:52:27.001Z,73
2018-11-11T08:53:27.735Z,78
2018-11-11T08:54:28.473Z,73
2018-11-11T08:55:29.196Z,73
2018-11-11T08:56:29.919Z,84
2018-11-11T08:57:30.651Z,90
2018-11-11T08:58:31.369Z,95
2018-11-11T08:59:32.152Z,95
2018-11-11T09:00:32.884Z,101
2018-11-11T09:01:33.617Z,118
2018-11-11T09:02:34.352Z,157
2018-11-11T09:03:35.080Z,191
2018-11-11T09:04:35.853Z,185
2018-11-11T09:05:36.525Z,180
2018-11-11T09:06:37.263Z,163
2018-11-11T09:07:37.987Z,180
2018-11-11T09:08:38.707Z,191
2018-11-11T09:09:39.426Z,174
2018-11-11T09:10:40.163Z,168
2018-11-11T09:11:40.939Z,157
2018-11-11T09:12:41.635Z,168
2018-11-11T09:13:42.360Z,196
2018-11-11T09:14:43.088Z,225
2018-11-11T09:15:43.813Z,191
2018-11-11T09:16:44.837Z,230
2018-11-11T09:17:45.564Z,213
2018-11-11T09:18:46.306Z,320
2018-11-11T09:19:47.045Z,348
2018-11-11T09:20:47.758Z,253
2018-11-11T09:21:48.529Z,241
2018-11-11T09:22:49.261Z,315
2018-11-11T09:23:50.040Z,365
2018-11-11T09:24:50.717Z,416
2018-11-11T09:25:51.489Z,393
2018-11-11T09:26:52.188Z,320
2018-11-11T09:27:52.924Z,281
2018-11-11T09:28:53.655Z,258
2018-11-11T09:29:54.369Z,219
2018-11-11T09:30:55.099Z,174
2018-11-11T09:31:55.823Z,196
2018-11-11T09:32:56.597Z,219
2018-11-11T09:33:57.317Z,196
2018-11-11T09:34:58.065Z,247
2018-11-11T09:35:58.785Z,303
2018-11-11T09:36:59.518Z,292
2018-11-11T09:38:00.244Z,292
2018-11-11T09:39:01.043Z,326
2018-11-11T09:40:01.704Z,292
2018-11-11T09:41:02.435Z,270
2018-11-11T09:42:03.166Z,309
2018-11-11T09:43:03.889Z,360
2018-11-11T09:44:04.760Z,309
2018-11-11T09:45:05.753Z,275
2018-11-11T09:46:06.472Z,230
2018-11-11T09:47:07.214Z,219
2018-11-11T09:48:07.928Z,219
2018-11-11T09:49:08.663Z,185
2018-11-11T09:50:09.384Z,275
2018-11-11T09:51:10.675Z,421
2018-11-11T09:52:11.395Z,646
2018-11-11T09:53:12.129Z,618
2018-11-11T09:54:12.865Z,506
2018-11-11T09:55:13.591Z,540
2018-11-11T09:56:14.318Z,298
2018-11-11T09:57:15.049Z,427
2018-11-11T09:58:15.777Z,433
2018-11-11T09:59:16.506Z,393
2018-11-11T10:00:17.236Z,410
2018-11-11T10:01:18.263Z,388
2018-11-11T10:02:18.984Z,360
2018-11-11T10:03:19.706Z,399
2018-11-11T10:04:20.441Z,382
2018-11-11T10:05:21.164Z,382
2018-11-11T10:06:21.995Z,421
2018-11-11T10:07:22.638Z,438
2018-11-11T10:08:23.368Z,596
2018-11-11T10:09:24.102Z,641
2018-11-11T10:10:24.829Z,658
2018-11-11T10:11:25.819Z,579
2018-11-11T10:12:26.599Z,483
2018-11-11T10:13:27.271Z,495
2018-11-11T10:14:27.989Z,455
2018-11-11T10:15:28.721Z,388
2018-11-11T10:16:29.455Z,360
2018-11-11T10:17:30.182Z,343
2018-11-11T10:18:31.003Z,326
2018-11-11T10:19:31.726Z,315
2018-11-11T10:20:32.468Z,320
2018-11-11T10:21:33.194Z,315
2018-11-11T10:22:33.908Z,376
2018-11-11T10:23:34.640Z,455
2018-11-11T10:24:35.357Z,523
2018-11-11T10:25:36.083Z,523
2018-11-11T10:26:36.804Z,511
2018-11-11T10:27:37.568Z,545
2018-11-11T10:28:38.306Z,540
2018-11-11T10:29:39.131Z,540
2018-11-11T10:30:39.818Z,556
2018-11-11T10:31:40.560Z,607
2018-11-11T10:32:41.280Z,691
2018-11-11T10:33:42.106Z,742
2018-11-11T10:34:42.834Z,725
2018-11-11T10:35:43.565Z,759
2018-11-11T10:36:44.550Z,731
2018-11-11T10:37:45.289Z,675
2018-11-11T10:38:46.017Z,641
2018-11-11T10:39:46.836Z,630
2018-11-11T10:40:47.586Z,455
2018-11-11T10:41:48.307Z,416
2018-11-11T10:42:49.042Z,455
2018-11-11T10:43:49.778Z,483
2018-11-11T10:44:50.502Z,483
2018-11-11T10:45:51.216Z,466
2018-11-11T10:46:51.940Z,495
2018-11-11T10:47:52.662Z,489
2018-11-11T10:48:53.440Z,371
2018-11-11T10:49:54.185Z,326
2018-11-11T10:50:54.909Z,337
2018-11-11T10:51:55.637Z,371
2018-11-11T10:52:56.365Z,540
2018-11-11T10:53:57.154Z,360
2018-11-11T10:54:57.883Z,371
2018-11-11T10:55:58.617Z,438
2018-11-11T10:56:59.363Z,405
2018-11-11T10:58:00.103Z,427
2018-11-11T10:59:00.816Z,320
2018-11-11T11:00:01.620Z,343
2018-11-11T11:01:02.320Z,343
2018-11-11T11:02:03.052Z,360
2018-11-11T11:03:03.776Z,393
2018-11-11T11:04:04.496Z,382
2018-11-11T11:05:05.217Z,382
2018-11-11T11:06:05.956Z,292
2018-11-11T11:07:06.681Z,393
2018-11-11T11:08:07.406Z,354
2018-11-11T11:09:08.384Z,466
2018-11-11T11:10:09.113Z,393
2018-11-11T11:11:10.203Z,466
2018-11-11T11:12:10.924Z,495
2018-11-11T11:13:11.721Z,466
2018-11-11T11:14:12.390Z,455
2018-11-11T11:15:13.115Z,438
2018-11-11T11:16:13.888Z,410
2018-11-11T11:17:14.623Z,393
2018-11-11T11:18:15.351Z,331
2018-11-11T11:19:16.080Z,444
2018-11-11T11:20:16.811Z,472
2018-11-11T11:21:17.592Z,343
2018-11-11T11:22:18.311Z,410
2018-11-11T11:23:19.038Z,455
2018-11-11T11:24:19.764Z,500
2018-11-11T11:25:20.492Z,613
2018-11-11T11:26:21.218Z,585
2018-11-11T11:27:21.979Z,742
2018-11-11T11:28:22.772Z,748
2018-11-11T11:29:23.793Z,720
2018-11-11T11:30:24.512Z,427
2018-11-11T11:31:25.285Z,596
2018-11-11T11:32:26.244Z,393
2018-11-11T11:33:27.078Z,433
2018-11-11T11:34:27.814Z,382
2018-11-11T11:35:28.624Z,393
2018-11-11T11:36:29.276Z,433
2018-11-11T11:37:30.014Z,585
2018-11-11T11:38:30.744Z,759
2018-11-11T11:39:31.463Z,585
2018-11-11T11:40:32.188Z,410
2018-11-11T11:41:32.927Z,360
2018-11-11T11:42:33.699Z,495
2018-11-11T11:43:34.502Z,551
2018-11-11T11:44:35.231Z,517
2018-11-11T11:45:35.964Z,556
2018-11-11T11:46:36.688Z,551
2018-11-11T11:47:37.555Z,472
2018-11-11T11:48:38.171Z,433
2018-11-11T11:49:38.908Z,438
2018-11-11T11:50:39.644Z,421
2018-11-11T11:51:40.385Z,421
2018-11-11T11:52:41.138Z,371
2018-11-11T11:53:41.834Z,315
2018-11-11T11:54:42.560Z,281
2018-11-11T11:55:43.289Z,253
2018-11-11T11:56:44.024Z,270
2018-11-11T11:57:44.759Z,270
2018-11-11T11:58:45.531Z,286
2018-11-11T11:59:46.259Z,326
2018-11-11T12:00:47.095Z,275
2018-11-11T12:01:48.090Z,219
2018-11-11T12:02:48.832Z,213
2018-11-11T12:03:49.560Z,275
2018-11-11T12:04:50.286Z,331
2018-11-11T12:05:51.113Z,315
2018-11-11T12:06:51.850Z,241
2018-11-11T12:07:52.576Z,202
2018-11-11T12:08:53.642Z,213
2018-11-11T12:09:54.285Z,326
2018-11-11T12:10:55.336Z,382
2018-11-11T12:11:56.058Z,298
2018-11-11T12:12:56.779Z,309
2018-11-11T12:13:57.502Z,343
2018-11-11T12:14:58.289Z,326
2018-11-11T12:15:59.024Z,303
2018-11-11T12:16:59.784Z,275
2018-11-11T12:18:00.513Z,247
2018-11-11T12:19:01.239Z,247
2018-11-11T12:20:02.233Z,247
2018-11-11T12:21:02.958Z,303
2018-11-11T12:22:03.690Z,354
2018-11-11T12:23:04.442Z,371
2018-11-11T12:24:05.138Z,315
2018-11-11T12:25:06.777Z,309
2018-11-11T12:26:07.705Z,292
2018-11-11T12:27:08.451Z,298
2018-11-11T12:28:09.224Z,309
2018-11-11T12:29:10.011Z,292
2018-11-11T12:30:10.751Z,230
2018-11-11T12:31:12.881Z,185
2018-11-11T12:32:14.472Z,174
2018-11-11T12:33:15.278Z,157
2018-11-11T12:34:16.046Z,129
2018-11-11T12:35:16.763Z,135
2018-11-11T12:36:17.600Z,191
2018-11-11T12:37:18.343Z,219
2018-11-11T12:39:20.956Z,264
2018-11-11T12:40:21.975Z,270
2018-11-11T12:41:22.794Z,286
2018-11-11T12:42:23.519Z,281
2018-11-11T12:43:24.246Z,258
2018-11-11T12:44:25.006Z,241
2018-11-11T12:45:25.717Z,241
2018-11-11T12:46:27.162Z,264
2018-11-11T12:47:27.939Z,292
2018-11-11T12:48:28.777Z,331
2018-11-11T12:49:29.510Z,393
2018-11-11T12:50:30.351Z,427
2018-11-11T12:51:31.946Z,444
2018-11-11T12:52:32.866Z,483
2018-11-11T12:53:33.602Z,523
2018-11-11T12:54:34.335Z,601
2018-11-11T12:55:35.391Z,658
2018-11-11T12:56:36.078Z,641
2018-11-11T12:57:36.855Z,590
2018-11-11T12:58:37.580Z,511
2018-11-11T12:59:38.381Z,393
2018-11-11T13:00:39.116Z,303
2018-11-11T13:01:39.897Z,241
2018-11-11T13:02:41.511Z,213
2018-11-11T13:03:42.592Z,185
2018-11-11T13:04:43.339Z,168
2018-11-11T13:05:44.070Z,163
2018-11-11T13:06:44.960Z,168
2018-11-11T13:07:45.701Z,174
2018-11-11T13:08:46.433Z,174
2018-11-11T13:09:47.175Z,174
2018-11-11T13:10:47.898Z,174
2018-11-11T13:11:48.690Z,174
2018-11-11T13:12:49.718Z,185
2018-11-11T13:13:50.466Z,202
2018-11-11T13:14:51.161Z,236
2018-11-11T13:15:51.882Z,275
2018-11-11T13:16:52.613Z,320
2018-11-11T13:17:53.416Z,371
2018-11-11T13:18:54.288Z,410
2018-11-11T13:19:55.074Z,427
2018-11-11T13:20:55.827Z,405
2018-11-11T13:21:56.589Z,354
2018-11-11T13:22:57.805Z,298
2018-11-11T13:23:58.593Z,275
2018-11-11T13:24:59.985Z,281
2018-11-11T13:26:00.945Z,298
2018-11-11T13:27:02.143Z,303
2018-11-11T13:28:02.856Z,292
2018-11-11T13:29:03.579Z,270
2018-11-11T13:30:04.302Z,258
2018-11-11T13:31:05.035Z,236
2018-11-11T13:32:05.831Z,213
2018-11-11T13:33:06.949Z,196
2018-11-11T13:34:07.785Z,185
2018-11-11T13:35:08.587Z,196
2018-11-11T13:36:09.358Z,225
2018-11-11T13:37:10.562Z,258
2018-11-11T13:38:11.511Z,281
2018-11-11T13:39:12.215Z,281
2018-11-11T13:40:12.952Z,270
2018-11-11T13:41:13.941Z,264
2018-11-11T13:42:14.665Z,270
2018-11-11T13:43:15.446Z,281
2018-11-11T13:44:16.221Z,298
2018-11-11T13:45:16.998Z,292
2018-11-11T13:46:17.752Z,281
2018-11-11T13:47:18.457Z,264
2018-11-11T13:48:19.179Z,253
2018-11-11T13:49:19.897Z,253
2018-11-11T13:50:20.900Z,264
2018-11-11T13:51:21.632Z,298
2018-11-11T13:52:22.386Z,315
2018-11-11T13:53:23.081Z,303
2018-11-11T13:54:23.941Z,281
2018-11-11T13:55:24.740Z,286
2018-11-11T13:56:25.478Z,281
2018-11-11T13:57:26.511Z,264
2018-11-11T13:58:27.228Z,236
2018-11-11T13:59:27.966Z,196
2018-11-11T14:00:28.714Z,180
2018-11-11T14:01:29.501Z,180
2018-11-11T14:02:30.238Z,191
2018-11-11T14:03:31.001Z,219
2018-11-11T14:04:31.725Z,258
2018-11-11T14:05:32.440Z,303
2018-11-11T14:06:33.172Z,326
2018-11-11T14:07:33.901Z,303
2018-11-11T14:08:34.631Z,258
2018-11-11T14:09:35.710Z,208
2018-11-11T14:10:36.854Z,174
2018-11-11T14:11:37.788Z,151
2018-11-11T14:12:38.552Z,140
2018-11-11T14:13:39.662Z,140
2018-11-11T14:14:40.379Z,151
2018-11-11T14:15:41.103Z,174
2018-11-11T14:16:41.823Z,191
2018-11-11T14:17:42.790Z,219
2018-11-11T14:18:43.695Z,230
2018-11-11T14:19:44.279Z,230
2018-11-11T14:20:45.440Z,219
2018-11-11T14:21:47.921Z,196
2018-11-11T14:22:49.989Z,174
2018-11-11T14:23:52.007Z,151
2018-11-11T14:24:54.130Z,135
2018-11-11T14:25:55.958Z,118
2018-11-11T14:26:57.975Z,112
2018-11-11T14:27:58.673Z,112
2018-11-11T14:28:59.401Z,112
2018-11-11T14:30:00.126Z,106